Time;durP1;ratioP1;P1;durP2;ratioP2;P2;SDS_P1;SDS_P2;PMS_P1;PMS_P2;Temp;Humidity;BMP_temperature;BMP_pressure;BME280_temperature;BME280_humidity;BME280_pressure;Samples;Min_cycle;Max_cycle;Signal;HPM_P1;HPM_P2
2022/10/20 00:00:37;;;;;;;12.10;1.40;;;;;;;;;;5126497;28;20050;-74
2022/10/20 00:03:06;;;;;;;1.67;0.85;;;;;;;;;;5125904;28;20240;-74
2022/10/20 00:05:36;;;;;;;3.58;0.80;;;;;;;;;;5126202;28;20047;-73
2022/10/20 00:08:06;;;;;;;3.20;1.20;;;;;;;;;;5126308;27;20051;-76
2022/10/20 00:14:21;;;;;;;4.00;0.60;;;;;;;;;;5128823;27;20055;-74
2022/10/20 00:17:11;;;;;;;0.95;0.55;;;;;;;;;;5130024;27;20051;-75
2022/10/20 00:31:49;;;;;;;0.75;0.50;;;;;;;;;;5129616;27;20054;-74
2022/10/20 00:39:09;;;;;;;1.60;0.50;;;;;;;;;;5847140;22;20020;-76
2022/10/20 00:45:25;;;;;;;1.85;1.13;;;;;;;;;;4985686;28;20066;-74
2022/10/20 00:48:03;;;;;;;3.05;0.90;;;;;;;;;;4970265;28;20049;-74
2022/10/20 00:50:42;;;;;;;4.38;0.63;;;;;;;;;;4985628;28;20548;-73
2022/10/20 00:53:12;;;;;;;3.20;0.82;;;;;;;;;;4986441;28;20053;-73
2022/10/20 00:55:46;;;;;;;1.00;0.63;;;;;;;;;;4987461;28;20061;-75
2022/10/20 00:58:18;;;;;;;2.10;0.70;;;;;;;;;;4986493;28;20054;-73
2022/10/20 01:00:51;;;;;;;3.60;0.68;;;;;;;;;;4985163;28;20429;-75
2022/10/20 01:03:29;;;;;;;1.38;0.50;;;;;;;;;;4985796;28;20050;-73
2022/10/20 01:06:00;;;;;;;1.70;0.40;;;;;;;;;;4986365;28;20473;-73
2022/10/20 01:08:30;;;;;;;1.05;0.63;;;;;;;;;;4985977;28;20460;-75
2022/10/20 01:11:24;;;;;;;2.70;0.50;;;;;;;;;;4986057;28;20085;-74
2022/10/20 01:14:37;;;;;;;1.02;0.50;;;;;;;;;;4986077;28;20540;-74
2022/10/20 01:17:39;;;;;;;1.15;0.60;;;;;;;;;;4986085;28;20042;-73
2022/10/20 01:20:27;;;;;;;0.60;0.50;;;;;;;;;;4979397;28;20946;-73
2022/10/20 01:23:15;;;;;;;;;;;;;;;;;;4986852;28;20442;-73
2022/10/20 01:26:09;;;;;;;1.05;0.40;;;;;;;;;;4985911;28;19933;-75
2022/10/20 01:28:49;;;;;;;1.45;0.50;;;;;;;;;;4985676;28;20622;-73
2022/10/20 01:31:36;;;;;;;1.42;0.63;;;;;;;;;;4986060;28;20050;-75
2022/10/20 01:34:30;;;;;;;1.15;0.70;;;;;;;;;;4986042;28;20059;-74
2022/10/20 01:37:16;;;;;;;3.38;0.70;;;;;;;;;;4986192;28;20054;-73
2022/10/20 01:40:26;;;;;;;1.67;0.63;;;;;;;;;;4985532;28;20062;-74
2022/10/20 01:43:01;;;;;;;1.95;0.70;;;;;;;;;;4992187;28;20419;-74
2022/10/20 01:45:34;;;;;;;1.58;0.60;;;;;;;;;;5002860;28;20073;-76
2022/10/20 01:48:06;;;;;;;0.70;0.65;;;;;;;;;;5007248;28;20046;-74
2022/10/20 01:50:38;;;;;;;2.83;0.70;;;;;;;;;;5006854;28;20054;-73
2022/10/20 01:53:09;;;;;;;1.60;0.63;;;;;;;;;;5006771;28;20057;-74
2022/10/20 01:55:40;;;;;;;0.63;0.52;;;;;;;;;;5007499;28;20041;-74
2022/10/20 01:58:15;;;;;;;2.25;0.90;;;;;;;;;;5007640;28;20673;-74
2022/10/20 02:00:47;;;;;;;0.90;0.52;;;;;;;;;;5007595;28;20042;-73
2022/10/20 02:03:23;;;;;;;1.30;0.45;;;;;;;;;;4990713;28;20538;-74
2022/10/20 02:06:05;;;;;;;3.35;1.20;;;;;;;;;;5007675;28;20061;-73
2022/10/20 02:08:53;;;;;;;1.65;0.52;;;;;;;;;;5006811;28;20062;-73
2022/10/20 02:11:52;;;;;;;1.75;0.55;;;;;;;;;;5007603;28;20064;-73
2022/10/20 02:14:23;;;;;;;1.80;0.90;;;;;;;;;;5005619;28;20599;-73
2022/10/20 02:16:57;;;;;;;3.58;0.80;;;;;;;;;;4989933;28;20054;-73
2022/10/20 02:19:33;;;;;;;1.33;0.70;;;;;;;;;;5006798;28;20328;-75
2022/10/20 02:22:04;;;;;;;2.78;1.10;;;;;;;;;;5006369;28;20054;-74
2022/10/20 02:24:37;;;;;;;1.95;0.82;;;;;;;;;;5007092;28;20057;-75
2022/10/20 02:27:14;;;;;;;2.33;1.10;;;;;;;;;;4989621;28;20065;-73
2022/10/20 02:29:53;;;;;;;1.75;0.73;;;;;;;;;;4989537;28;20056;-73
2022/10/20 02:32:24;;;;;;;3.53;0.90;;;;;;;;;;5006728;28;20045;-75
2022/10/20 02:34:55;;;;;;;1.67;0.90;;;;;;;;;;5007351;28;20068;-74
2022/10/20 02:37:24;;;;;;;0.75;0.73;;;;;;;;;;5006626;28;20408;-73
2022/10/20 02:39:54;;;;;;;1.23;0.65;;;;;;;;;;5006685;28;20058;-73
2022/10/20 02:42:24;;;;;;;1.42;0.70;;;;;;;;;;5006369;28;20049;-75
2022/10/20 02:44:54;;;;;;;0.90;0.70;;;;;;;;;;4988721;28;20535;-73
2022/10/20 02:47:24;;;;;;;1.77;0.60;;;;;;;;;;5006890;28;20049;-73
2022/10/20 02:49:54;;;;;;;1.48;0.90;;;;;;;;;;5006695;28;20038;-75
2022/10/20 02:52:24;;;;;;;1.67;0.57;;;;;;;;;;5006628;28;20050;-73
2022/10/20 02:54:54;;;;;;;5.15;0.60;;;;;;;;;;5005554;28;20054;-75
2022/10/20 02:57:25;;;;;;;1.70;0.75;;;;;;;;;;5007010;28;20060;-74
2022/10/20 02:59:55;;;;;;;0.77;0.52;;;;;;;;;;5007292;28;20496;-74
2022/10/20 03:02:25;;;;;;;1.15;0.55;;;;;;;;;;5006416;28;20050;-75
2022/10/20 03:04:57;;;;;;;4.10;0.73;;;;;;;;;;5007099;28;20049;-74
2022/10/20 03:07:27;;;;;;;0.70;0.70;;;;;;;;;;5006257;28;20050;-74
2022/10/20 03:09:57;;;;;;;3.80;0.98;;;;;;;;;;4989392;28;20061;-74
2022/10/20 03:12:27;;;;;;;2.83;0.70;;;;;;;;;;5006252;28;20054;-73
2022/10/20 03:15:00;;;;;;;2.85;0.70;;;;;;;;;;5006541;28;20050;-74
2022/10/20 03:17:30;;;;;;;1.80;0.60;;;;;;;;;;5006455;28;20049;-74
2022/10/20 03:20:01;;;;;;;0.50;0.50;;;;;;;;;;4988397;28;20057;-75
2022/10/20 03:22:31;;;;;;;3.03;0.93;;;;;;;;;;5006592;28;20535;-74
2022/10/20 03:25:01;;;;;;;2.50;0.98;;;;;;;;;;5005932;28;20050;-74
2022/10/20 03:27:33;;;;;;;3.58;0.80;;;;;;;;;;5006263;28;20053;-73
2022/10/20 03:30:04;;;;;;;1.52;0.55;;;;;;;;;;5006342;28;20053;-73
2022/10/20 03:32:34;;;;;;;0.70;0.52;;;;;;;;;;5006486;28;20049;-72
2022/10/20 03:35:06;;;;;;;4.40;0.70;;;;;;;;;;5006362;28;20047;-74
2022/10/20 03:37:36;;;;;;;2.08;0.75;;;;;;;;;;4989479;28;20041;-74
2022/10/20 03:40:06;;;;;;;0.80;0.65;;;;;;;;;;5006243;28;20054;-75
2022/10/20 03:42:37;;;;;;;2.42;0.57;;;;;;;;;;5006191;28;20049;-76
2022/10/20 03:45:07;;;;;;;1.80;0.80;;;;;;;;;;5007675;28;20057;-73
2022/10/20 03:47:41;;;;;;;0.57;0.57;;;;;;;;;;5009263;28;20428;-75
2022/10/20 03:50:11;;;;;;;1.95;1.08;;;;;;;;;;5008675;28;20069;-76
2022/10/20 03:52:41;;;;;;;0.75;0.75;;;;;;;;;;5009777;28;20050;-73
2022/10/20 03:55:13;;;;;;;1.92;0.80;;;;;;;;;;5009873;28;20397;-73
2022/10/20 03:57:43;;;;;;;1.35;0.70;;;;;;;;;;4992963;28;20053;-76
2022/10/20 04:00:13;;;;;;;2.63;1.00;;;;;;;;;;5010292;28;20060;-75
2022/10/20 04:02:45;;;;;;;2.55;0.80;;;;;;;;;;5010098;28;20045;-74
2022/10/20 04:05:18;;;;;;;2.38;1.00;;;;;;;;;;5009343;28;20053;-75
2022/10/20 04:07:48;;;;;;;1.73;0.50;;;;;;;;;;5009474;28;20386;-74
2022/10/20 04:10:19;;;;;;;0.90;0.77;;;;;;;;;;4992601;28;20057;-76
2022/10/20 04:12:49;;;;;;;2.10;0.90;;;;;;;;;;5009494;28;20046;-75
2022/10/20 04:15:19;;;;;;;0.60;0.45;;;;;;;;;;4991903;28;20065;-73
2022/10/20 04:17:49;;;;;;;3.65;0.70;;;;;;;;;;5009226;28;20425;-73
2022/10/20 04:20:20;;;;;;;1.67;0.45;;;;;;;;;;5008916;28;20061;-75
2022/10/20 04:22:50;;;;;;;2.47;0.60;;;;;;;;;;5009242;28;20042;-74
2022/10/20 04:25:20;;;;;;;2.90;0.77;;;;;;;;;;5009912;28;20428;-74
2022/10/20 04:27:50;;;;;;;1.35;0.57;;;;;;;;;;5009917;28;20357;-75
2022/10/20 04:30:21;;;;;;;2.28;0.77;;;;;;;;;;5008863;28;20703;-74
2022/10/20 04:32:51;;;;;;;0.60;0.60;;;;;;;;;;5008895;28;20519;-74
2022/10/20 04:35:21;;;;;;;1.27;0.60;;;;;;;;;;5010902;28;20054;-75
2022/10/20 04:37:53;;;;;;;1.35;0.70;;;;;;;;;;5014026;28;20046;-75
2022/10/20 04:40:24;;;;;;;1.95;0.60;;;;;;;;;;5009878;28;20054;-74
2022/10/20 04:42:54;;;;;;;0.95;0.57;;;;;;;;;;5008568;28;20050;-75
2022/10/20 04:45:24;;;;;;;0.80;0.60;;;;;;;;;;5008764;28;20073;-75
2022/10/20 04:47:54;;;;;;;3.67;1.00;;;;;;;;;;5008812;28;20423;-75
2022/10/20 04:50:24;;;;;;;1.17;0.50;;;;;;;;;;5009487;28;20049;-74
2022/10/20 04:53:08;;;;;;;0.60;0.60;;;;;;;;;;5008936;28;20045;-75
2022/10/20 04:55:38;;;;;;;1.52;0.63;;;;;;;;;;5008144;28;20038;-73
2022/10/20 04:58:10;;;;;;;1.90;0.70;;;;;;;;;;5008490;28;20049;-74
2022/10/20 05:00:40;;;;;;;0.75;0.63;;;;;;;;;;5008922;28;20049;-74
2022/10/20 05:03:10;;;;;;;4.78;0.70;;;;;;;;;;5008698;28;20053;-73
2022/10/20 05:05:40;;;;;;;2.33;0.80;;;;;;;;;;5008725;28;20152;-75
2022/10/20 05:08:10;;;;;;;1.55;0.65;;;;;;;;;;5008501;28;20505;-73
2022/10/20 05:10:40;;;;;;;1.67;0.57;;;;;;;;;;5008596;28;20072;-76
2022/10/20 05:13:11;;;;;;;1.55;0.60;;;;;;;;;;5008545;28;20050;-75
2022/10/20 05:15:41;;;;;;;1.40;0.73;;;;;;;;;;5008018;28;20068;-75
2022/10/20 05:18:11;;;;;;;1.67;0.93;;;;;;;;;;5008496;28;20052;-75
2022/10/20 05:20:41;;;;;;;2.15;1.02;;;;;;;;;;4990821;28;20054;-74
2022/10/20 05:23:31;;;;;;;0.93;0.77;;;;;;;;;;5008369;28;20061;-74
2022/10/20 05:26:07;;;;;;;3.20;1.00;;;;;;;;;;5008003;28;20061;-74
2022/10/20 05:28:37;;;;;;;1.40;0.80;;;;;;;;;;5008169;28;20579;-75
2022/10/20 05:31:08;;;;;;;0.73;0.50;;;;;;;;;;5007552;28;20428;-75
2022/10/20 05:33:42;;;;;;;0.93;0.57;;;;;;;;;;4990270;28;20786;-75
2022/10/20 05:36:17;;;;;;;2.30;0.52;;;;;;;;;;4991027;28;20064;-75
2022/10/20 05:38:53;;;;;;;0.80;0.80;;;;;;;;;;5007469;28;20042;-74
2022/10/20 05:41:29;;;;;;;1.77;0.60;;;;;;;;;;4990555;28;20065;-75
2022/10/20 05:44:07;;;;;;;2.45;0.73;;;;;;;;;;5007982;28;20042;-74
2022/10/20 05:46:42;;;;;;;1.25;0.50;;;;;;;;;;5008169;28;20393;-75
2022/10/20 05:49:15;;;;;;;1.98;0.43;;;;;;;;;;5007680;28;20800;-73
2022/10/20 05:51:46;;;;;;;0.70;0.68;;;;;;;;;;5007545;28;20425;-74
2022/10/20 05:54:17;;;;;;;0.77;0.77;;;;;;;;;;5007994;28;20042;-74
2022/10/20 05:56:47;;;;;;;0.60;0.60;;;;;;;;;;5007935;28;20061;-74
2022/10/20 05:59:18;;;;;;;0.65;0.60;;;;;;;;;;5007351;28;20129;-73
2022/10/20 06:01:48;;;;;;;1.35;0.60;;;;;;;;;;5007441;28;20771;-72
2022/10/20 06:04:23;;;;;;;0.88;0.50;;;;;;;;;;5006978;28;20073;-74
2022/10/20 06:06:54;;;;;;;1.00;0.70;;;;;;;;;;5007100;28;20056;-74
2022/10/20 06:09:25;;;;;;;1.38;0.60;;;;;;;;;;5007432;28;20496;-74
2022/10/20 06:11:56;;;;;;;12.18;1.02;;;;;;;;;;5006501;28;20064;-75
2022/10/20 06:14:26;;;;;;;1.30;0.50;;;;;;;;;;5007813;28;20510;-74
2022/10/20 06:16:56;;;;;;;0.50;0.50;;;;;;;;;;5007240;28;20426;-74
2022/10/20 06:19:27;;;;;;;0.63;0.40;;;;;;;;;;5008338;28;20052;-76
2022/10/20 06:21:57;;;;;;;0.43;0.40;;;;;;;;;;5003051;28;20052;-73
2022/10/20 06:24:34;;;;;;;0.30;0.20;;;;;;;;;;5006049;28;20551;-75
2022/10/20 06:27:04;;;;;;;0.43;0.40;;;;;;;;;;5007958;28;20408;-75
2022/10/20 06:29:35;;;;;;;0.43;0.43;;;;;;;;;;5007424;28;20583;-72
2022/10/20 06:32:05;;;;;;;0.30;0.30;;;;;;;;;;5008417;28;20405;-74
2022/10/20 06:34:35;;;;;;;0.93;0.40;;;;;;;;;;5008194;28;20042;-72
2022/10/20 06:37:05;;;;;;;0.20;0.20;;;;;;;;;;5009396;28;20049;-74
2022/10/20 06:39:35;;;;;;;1.50;0.80;;;;;;;;;;5009356;28;20065;-73
2022/10/20 06:42:05;;;;;;;0.82;0.50;;;;;;;;;;5009077;28;20400;-75
2022/10/20 06:44:45;;;;;;;0.65;0.57;;;;;;;;;;5009520;28;20046;-73
2022/10/20 06:47:16;;;;;;;1.77;0.60;;;;;;;;;;5009869;28;20037;-74
2022/10/20 06:49:48;;;;;;;1.45;0.57;;;;;;;;;;5009245;28;20061;-74
2022/10/20 06:52:18;;;;;;;0.50;0.50;;;;;;;;;;5009064;28;20041;-73
2022/10/20 06:54:48;;;;;;;0.40;0.40;;;;;;;;;;5009041;28;20049;-73
2022/10/20 06:57:18;;;;;;;0.60;0.57;;;;;;;;;;5009537;28;20042;-73
2022/10/20 06:59:48;;;;;;;0.75;0.47;;;;;;;;;;5009408;28;20042;-73
2022/10/20 07:02:19;;;;;;;1.55;0.50;;;;;;;;;;5009740;28;20058;-74
2022/10/20 07:04:50;;;;;;;1.05;0.30;;;;;;;;;;5009149;28;20046;-73
2022/10/20 07:07:20;;;;;;;0.22;0.20;;;;;;;;;;5008834;28;20046;-74
2022/10/20 07:09:50;;;;;;;0.30;0.30;;;;;;;;;;5009528;28;20667;-73
2022/10/20 07:12:20;;;;;;;0.40;0.40;;;;;;;;;;5009341;28;20081;-73
2022/10/20 07:14:50;;;;;;;1.00;0.68;;;;;;;;;;5009346;28;20054;-73
2022/10/20 07:17:20;;;;;;;2.63;0.47;;;;;;;;;;5009078;28;20061;-75
2022/10/20 07:19:50;;;;;;;0.28;0.28;;;;;;;;;;5013056;28;20053;-75
2022/10/20 07:22:20;;;;;;;0.20;0.20;;;;;;;;;;5012516;28;20046;-73
2022/10/20 07:24:50;;;;;;;0.77;0.28;;;;;;;;;;5013595;28;20046;-74
2022/10/20 07:27:21;;;;;;;0.50;0.50;;;;;;;;;;5013649;28;20050;-74
2022/10/20 07:29:51;;;;;;;0.82;0.30;;;;;;;;;;5013152;28;20050;-74
2022/10/20 07:32:21;;;;;;;0.93;0.30;;;;;;;;;;5013742;28;20061;-73
2022/10/20 07:34:51;;;;;;;0.65;0.30;;;;;;;;;;5013399;28;20397;-73
2022/10/20 07:37:21;;;;;;;0.32;0.32;;;;;;;;;;5013336;28;20057;-74
2022/10/20 07:39:52;;;;;;;3.50;0.30;;;;;;;;;;5013177;28;20053;-73
2022/10/20 07:42:22;;;;;;;0.32;0.32;;;;;;;;;;5013065;28;20042;-74
2022/10/20 07:44:52;;;;;;;2.20;0.40;;;;;;;;;;5013170;28;20150;-73
2022/10/20 07:47:22;;;;;;;0.38;0.32;;;;;;;;;;5012964;28;20042;-73
2022/10/20 07:49:52;;;;;;;0.95;0.45;;;;;;;;;;5011757;28;20730;-73
2022/10/20 07:52:22;;;;;;;0.85;0.30;;;;;;;;;;5013117;28;20045;-74
2022/10/20 07:54:52;;;;;;;2.25;0.55;;;;;;;;;;5027528;28;20064;-74
2022/10/20 07:57:43;;;;;;;0.40;0.28;;;;;;;;;;5012933;28;20421;-75
2022/10/20 08:00:13;;;;;;;1.73;0.70;;;;;;;;;;5012917;28;20061;-74
2022/10/20 08:02:45;;;;;;;1.55;0.30;;;;;;;;;;5013005;28;20045;-75
2022/10/20 08:05:16;;;;;;;0.10;0.10;;;;;;;;;;5012882;28;20046;-74
2022/10/20 08:07:46;;;;;;;1.75;0.55;;;;;;;;;;5012739;28;20508;-72
2022/10/20 08:10:16;;;;;;;0.32;0.32;;;;;;;;;;5013004;28;20472;-75
2022/10/20 08:12:46;;;;;;;0.50;0.25;;;;;;;;;;5012400;28;20050;-73
2022/10/20 08:15:16;;;;;;;0.35;0.35;;;;;;;;;;5012726;28;20053;-74
2022/10/20 08:17:46;;;;;;;0.50;0.50;;;;;;;;;;5012374;28;20045;-74
2022/10/20 08:20:17;;;;;;;0.43;0.30;;;;;;;;;;5012568;28;20524;-74
2022/10/20 08:22:55;;;;;;;1.10;0.80;;;;;;;;;;5012245;28;20053;-75
2022/10/20 08:25:27;;;;;;;0.30;0.30;;;;;;;;;;5012140;28;20522;-73
2022/10/20 08:27:57;;;;;;;0.20;0.20;;;;;;;;;;5012384;28;20049;-74
2022/10/20 08:30:28;;;;;;;2.70;0.40;;;;;;;;;;5011625;28;20061;-76
2022/10/20 08:32:58;;;;;;;0.20;0.17;;;;;;;;;;5011949;28;20053;-74
2022/10/20 08:35:28;;;;;;;0.20;0.20;;;;;;;;;;5011920;28;20038;-74
2022/10/20 08:37:59;;;;;;;0.20;0.20;;;;;;;;;;5011994;28;20508;-73
2022/10/20 08:40:30;;;;;;;0.20;0.20;;;;;;;;;;5012288;28;20121;-75
2022/10/20 08:43:01;;;;;;;0.10;0.10;;;;;;;;;;5011767;28;20054;-75
2022/10/20 08:45:32;;;;;;;0.20;0.20;;;;;;;;;;5011681;28;20044;-75
2022/10/20 08:48:14;;;;;;;0.10;0.10;;;;;;;;;;5012320;28;20066;-74
2022/10/20 08:50:48;;;;;;;0.38;0.30;;;;;;;;;;5011788;28;20046;-76
2022/10/20 08:53:22;;;;;;;2.60;0.40;;;;;;;;;;5011742;28;20053;-74
2022/10/20 08:55:55;;;;;;;0.13;0.13;;;;;;;;;;5012107;28;20432;-74
2022/10/20 08:58:26;;;;;;;0.05;0.05;;;;;;;;;;5012299;28;20515;-75
2022/10/20 09:00:58;;;;;;;3.38;0.30;;;;;;;;;;5011829;28;20053;-74
2022/10/20 09:03:32;;;;;;;0.20;0.20;;;;;;;;;;5011998;28;20057;-73
2022/10/20 09:06:14;;;;;;;0.68;0.45;;;;;;;;;;5011916;28;20054;-73
2022/10/20 09:08:46;;;;;;;0.65;0.30;;;;;;;;;;5011656;28;20065;-75
2022/10/20 09:11:23;;;;;;;0.10;0.10;;;;;;;;;;5011319;28;20050;-75
2022/10/20 09:13:54;;;;;;;0.20;0.20;;;;;;;;;;5011261;28;20046;-74
2022/10/20 09:16:38;;;;;;;1.75;0.40;;;;;;;;;;5011460;28;20069;-76
2022/10/20 09:19:19;;;;;;;0.55;0.40;;;;;;;;;;5011658;28;20056;-73
2022/10/20 09:21:54;;;;;;;0.10;0.10;;;;;;;;;;5011064;28;20045;-73
2022/10/20 09:24:28;;;;;;;0.68;0.13;;;;;;;;;;5011006;28;20045;-73
2022/10/20 09:27:22;;;;;;;0.03;0.03;;;;;;;;;;5011295;28;20508;-73
2022/10/20 09:29:52;;;;;;;0.30;0.10;;;;;;;;;;5011333;28;20046;-75
2022/10/20 09:32:34;;;;;;;0.13;0.13;;;;;;;;;;5010945;28;20490;-73
2022/10/20 09:35:30;;;;;;;0.20;0.20;;;;;;;;;;5011250;28;20045;-74
2022/10/20 09:38:03;;;;;;;0.25;0.10;;;;;;;;;;5009541;28;20065;-74
2022/10/20 09:40:33;;;;;;;0.20;0.20;;;;;;;;;;5010756;28;20509;-72
2022/10/20 09:43:15;;;;;;;0.35;0.20;;;;;;;;;;5010170;28;20485;-72
2022/10/20 09:46:04;;;;;;;0.10;0.10;;;;;;;;;;5011038;28;20053;-74
2022/10/20 09:48:38;;;;;;;0.35;0.20;;;;;;;;;;5010940;28;20057;-75
2022/10/20 09:51:15;;;;;;;1.98;0.75;;;;;;;;;;5010926;28;20524;-75
2022/10/20 09:54:02;;;;;;;4.03;1.20;;;;;;;;;;5010294;28;20531;-75
2022/10/20 09:56:37;;;;;;;1.65;0.60;;;;;;;;;;5010814;28;20058;-74
2022/10/20 09:59:20;;;;;;;4.72;1.02;;;;;;;;;;5010738;28;20504;-73
2022/10/20 10:01:56;;;;;;;2.63;0.22;;;;;;;;;;5010141;28;20053;-73
2022/10/20 10:04:47;;;;;;;0.38;0.32;;;;;;;;;;5010518;28;20050;-75
2022/10/20 10:07:30;;;;;;;2.72;0.63;;;;;;;;;;5010273;28;20054;-73
2022/10/20 10:10:01;;;;;;;1.08;0.32;;;;;;;;;;5010090;28;20057;-74
2022/10/20 10:12:36;;;;;;;0.47;0.30;;;;;;;;;;5009934;28;20507;-74
2022/10/20 10:15:33;;;;;;;1.80;0.80;;;;;;;;;;5010436;28;20050;-74
2022/10/20 10:18:22;;;;;;;9.77;1.35;;;;;;;;;;5010544;28;20057;-76
2022/10/20 10:21:06;;;;;;;4.30;0.65;;;;;;;;;;5010327;28;20358;-74
2022/10/20 10:23:57;;;;;;;1.48;0.60;;;;;;;;;;5010609;28;20046;-72
2022/10/20 10:26:46;;;;;;;0.75;0.20;;;;;;;;;;4990411;28;20041;-72
2022/10/20 10:29:28;;;;;;;0.10;0.10;;;;;;;;;;4990674;28;20049;-74
2022/10/20 10:32:01;;;;;;;0.73;0.40;;;;;;;;;;4990680;28;20045;-74
2022/10/20 10:34:53;;;;;;;2.47;0.73;;;;;;;;;;4990470;28;20043;-74
2022/10/20 10:37:23;;;;;;;3.03;0.50;;;;;;;;;;4990361;28;20041;-73
2022/10/20 10:39:56;;;;;;;0.30;0.30;;;;;;;;;;4991786;28;20065;-72
2022/10/20 10:42:58;;;;;;;0.10;0.10;;;;;;;;;;5010070;28;20060;-75
2022/10/20 10:45:48;;;;;;;2.28;0.60;;;;;;;;;;5009895;28;20529;-74
2022/10/20 10:48:39;;;;;;;0.63;0.20;;;;;;;;;;5009996;28;20052;-73
2022/10/20 10:51:28;;;;;;;1.52;0.30;;;;;;;;;;5006713;28;20528;-75
2022/10/20 10:54:19;;;;;;;0.52;0.10;;;;;;;;;;4988799;28;20505;-76
2022/10/20 10:56:52;;;;;;;0.30;0.30;;;;;;;;;;5006655;28;20041;-74
2022/10/20 10:59:28;;;;;;;0.35;0.30;;;;;;;;;;5006817;28;20079;-73
2022/10/20 11:02:23;;;;;;;1.88;0.28;;;;;;;;;;4989357;28;20065;-72
2022/10/20 11:05:18;;;;;;;0.08;0.08;;;;;;;;;;5006548;28;20050;-73
2022/10/20 11:08:14;;;;;;;0.15;0.15;;;;;;;;;;5006532;28;20048;-75
2022/10/20 11:11:43;;;;;;;0.30;0.20;;;;;;;;;;5005363;28;20054;-74
2022/10/20 11:14:34;;;;;;;0.10;0.10;;;;;;;;;;4964835;28;20058;-73
2022/10/20 11:17:36;;;;;;;0.15;0.15;;;;;;;;;;4988886;28;20050;-72
2022/10/20 11:20:15;;;;;;;0.55;0.28;;;;;;;;;;5003966;28;20058;-72
2022/10/20 11:22:55;;;;;;;3.30;0.43;;;;;;;;;;4988753;28;20416;-73
2022/10/20 11:25:25;;;;;;;0.30;0.30;;;;;;;;;;5006081;28;20056;-72
2022/10/20 11:27:57;;;;;;;1.40;0.90;;;;;;;;;;4988815;28;20050;-73
2022/10/20 11:30:29;;;;;;;5.80;0.60;;;;;;;;;;5005976;28;20056;-73
2022/10/20 11:33:16;;;;;;;5.78;0.90;;;;;;;;;;5005926;28;20057;-74
2022/10/20 11:35:54;;;;;;;1.75;0.50;;;;;;;;;;5005969;28;20050;-73
2022/10/20 11:38:43;;;;;;;0.40;0.40;;;;;;;;;;5006566;28;20540;-72
2022/10/20 11:41:29;;;;;;;0.50;0.50;;;;;;;;;;4988493;28;20525;-73
2022/10/20 11:44:26;;;;;;;2.85;0.63;;;;;;;;;;5006592;28;20046;-77
2022/10/20 11:47:02;;;;;;;1.02;0.50;;;;;;;;;;5005833;28;20046;-74
2022/10/20 11:49:33;;;;;;;1.88;0.15;;;;;;;;;;5006315;28;20045;-73
2022/10/20 11:52:34;;;;;;;0.52;0.30;;;;;;;;;;5006360;28;20077;-74
2022/10/20 11:55:47;;;;;;;5.80;0.60;;;;;;;;;;5006109;28;20050;-73
2022/10/20 11:58:33;;;;;;;1.63;0.40;;;;;;;;;;4959365;28;20046;-72
2022/10/20 12:01:21;;;;;;;0.57;0.30;;;;;;;;;;5006448;28;20049;-73
2022/10/20 12:04:17;;;;;;;0.35;0.30;;;;;;;;;;5006463;28;20052;-73
2022/10/20 12:07:38;;;;;;;4.47;0.50;;;;;;;;;;5009366;28;20412;-72
2022/10/20 12:10:14;;;;;;;1.35;0.43;;;;;;;;;;4952342;29;20058;-74
2022/10/20 12:13:10;;;;;;;0.40;0.40;;;;;;;;;;5003245;28;20076;-73
2022/10/20 12:15:51;;;;;;;0.50;0.50;;;;;;;;;;5009883;28;20052;-72
2022/10/20 12:18:29;;;;;;;0.40;0.40;;;;;;;;;;5009631;28;20050;-77
2022/10/20 12:21:09;;;;;;;0.65;0.40;;;;;;;;;;5009172;28;20555;-77
2022/10/20 12:23:45;;;;;;;2.40;0.45;;;;;;;;;;5009154;28;20049;-74
2022/10/20 12:26:34;;;;;;;0.43;0.40;;;;;;;;;;5010077;28;20046;-74
2022/10/20 12:29:30;;;;;;;1.20;0.98;;;;;;;;;;4991665;28;20053;-74
2022/10/20 12:32:24;;;;;;;0.63;0.60;;;;;;;;;;5009266;28;20103;-74
2022/10/20 12:34:55;;;;;;;0.55;0.50;;;;;;;;;;5009295;28;20508;-74
2022/10/20 12:37:32;;;;;;;0.98;0.70;;;;;;;;;;5007264;28;20436;-74
2022/10/20 12:40:09;;;;;;;1.08;0.70;;;;;;;;;;5008537;28;20128;-73
2022/10/20 12:42:46;;;;;;;1.75;0.77;;;;;;;;;;5009198;28;20069;-75
2022/10/20 12:45:19;;;;;;;1.42;0.68;;;;;;;;;;5009374;28;20046;-76
2022/10/20 12:47:54;;;;;;;1.08;0.73;;;;;;;;;;5008891;28;20121;-74
2022/10/20 12:50:45;;;;;;;1.38;0.70;;;;;;;;;;4991505;28;20050;-72
2022/10/20 12:53:27;;;;;;;0.90;0.90;;;;;;;;;;5009489;28;20041;-74
2022/10/20 12:56:00;;;;;;;1.58;0.70;;;;;;;;;;5009437;28;20052;-72
2022/10/20 12:58:36;;;;;;;1.17;0.88;;;;;;;;;;5008573;28;20046;-76
2022/10/20 13:01:10;;;;;;;0.90;0.80;;;;;;;;;;5005672;28;20412;-76
2022/10/20 13:03:45;;;;;;;1.58;0.93;;;;;;;;;;5009576;28;20046;-76
2022/10/20 13:06:36;;;;;;;1.38;1.10;;;;;;;;;;5008450;28;20405;-74
2022/10/20 13:09:10;;;;;;;0.60;0.60;;;;;;;;;;4997743;28;20057;-75
2022/10/20 13:11:53;;;;;;;2.25;0.80;;;;;;;;;;5008991;28;20042;-73
2022/10/20 13:14:34;;;;;;;0.88;0.82;;;;;;;;;;5008615;28;20050;-74
2022/10/20 13:17:24;;;;;;;1.00;0.90;;;;;;;;;;5008496;28;20045;-76
2022/10/20 13:20:02;;;;;;;1.35;0.90;;;;;;;;;;5009095;28;20500;-75
2022/10/20 13:22:37;;;;;;;1.40;1.00;;;;;;;;;;5008503;28;20050;-74
2022/10/20 13:25:17;;;;;;;2.97;1.20;;;;;;;;;;5008153;28;20053;-76
2022/10/20 13:27:48;;;;;;;3.28;1.30;;;;;;;;;;5008342;28;20504;-77
2022/10/20 13:30:21;;;;;;;2.97;1.33;;;;;;;;;;5008676;28;20042;-75
2022/10/20 13:33:07;;;;;;;3.80;1.17;;;;;;;;;;5008353;28;20128;-74
2022/10/20 13:36:19;;;;;;;1.38;1.10;;;;;;;;;;5008244;28;20049;-75
2022/10/20 13:38:52;;;;;;;3.55;1.50;;;;;;;;;;5008210;28;20412;-73
2022/10/20 13:41:36;;;;;;;4.78;1.42;;;;;;;;;;5008463;28;20050;-75
2022/10/20 13:44:22;;;;;;;4.40;1.10;;;;;;;;;;5008034;28;20053;-75
2022/10/20 13:47:25;;;;;;;2.95;1.40;;;;;;;;;;5008238;28;20049;-74
2022/10/20 13:50:08;;;;;;;2.53;1.27;;;;;;;;;;5008083;28;20571;-74
2022/10/20 13:52:43;;;;;;;2.22;1.35;;;;;;;;;;5007964;28;20052;-75
2022/10/20 13:55:22;;;;;;;2.35;1.80;;;;;;;;;;5007654;28;20046;-74
2022/10/20 13:57:58;;;;;;;2.72;1.50;;;;;;;;;;5008425;28;20050;-76
2022/10/20 14:00:31;;;;;;;2.83;1.88;;;;;;;;;;5006698;28;20064;-73
2022/10/20 14:03:18;;;;;;;2.53;1.98;;;;;;;;;;5007852;28;20125;-75
2022/10/20 14:05:49;;;;;;;5.30;1.95;;;;;;;;;;5007377;28;20045;-75
2022/10/20 14:08:19;;;;;;;3.70;2.17;;;;;;;;;;5007643;28;20046;-75
2022/10/20 14:11:00;;;;;;;4.07;1.77;;;;;;;;;;5008199;28;20161;-75
2022/10/20 14:13:34;;;;;;;2.83;2.08;;;;;;;;;;5007082;28;20056;-75
2022/10/20 14:16:12;;;;;;;8.50;2.47;;;;;;;;;;5007312;28;20057;-74
2022/10/20 14:18:42;;;;;;;5.30;2.33;;;;;;;;;;5007376;28;20504;-72
2022/10/20 14:21:18;;;;;;;4.18;2.30;;;;;;;;;;5007475;28;20046;-74
2022/10/20 14:23:49;;;;;;;3.45;2.40;;;;;;;;;;5007568;28;20050;-75
2022/10/20 14:26:21;;;;;;;3.00;2.25;;;;;;;;;;5007129;28;20052;-73
2022/10/20 14:28:53;;;;;;;4.32;2.33;;;;;;;;;;5006423;28;20489;-75
2022/10/20 14:31:24;;;;;;;6.50;2.35;;;;;;;;;;5006865;28;20045;-74
2022/10/20 14:33:54;;;;;;;4.05;2.55;;;;;;;;;;5007724;28;20050;-75
2022/10/20 14:36:26;;;;;;;5.15;2.45;;;;;;;;;;5007637;28;20050;-75
2022/10/20 14:38:59;;;;;;;7.35;2.63;;;;;;;;;;5006993;28;20081;-78
2022/10/20 14:41:34;;;;;;;9.10;3.17;;;;;;;;;;5006906;28;20042;-74
2022/10/20 14:44:07;;;;;;;4.82;3.03;;;;;;;;;;5007372;28;20505;-75
2022/10/20 14:46:57;;;;;;;9.18;3.83;;;;;;;;;;5007743;28;20046;-77
2022/10/20 14:49:30;;;;;;;8.02;3.50;;;;;;;;;;5006459;28;20053;-73
2022/10/20 14:52:05;;;;;;;7.45;3.53;;;;;;;;;;5013345;28;20776;-74
2022/10/20 14:54:40;;;;;;;5.65;3.40;;;;;;;;;;5008717;28;20064;-73
2022/10/20 14:57:09;;;;;;;7.75;3.67;;;;;;;;;;5006768;28;20519;-74
2022/10/20 15:00:01;;;;;;;8.55;4.57;;;;;;;;;;5007257;28;20057;-75
2022/10/20 15:02:41;;;;;;;7.20;3.85;;;;;;;;;;5006947;28;20054;-79
2022/10/20 15:05:35;;;;;;;7.88;4.88;;;;;;;;;;5006474;28;20053;-74
2022/10/20 15:08:25;;;;;;;8.95;5.07;;;;;;;;;;5006366;28;20523;-74
2022/10/20 15:10:56;;;;;;;8.43;4.70;;;;;;;;;;5006968;28;20481;-74
2022/10/20 15:13:28;;;;;;;8.85;4.43;;;;;;;;;;5006890;28;20050;-78
2022/10/20 15:16:00;;;;;;;8.80;5.25;;;;;;;;;;5006782;28;20058;-74
2022/10/20 15:18:31;;;;;;;10.02;5.82;;;;;;;;;;5006427;28;20145;-76
2022/10/20 15:21:07;;;;;;;10.07;5.68;;;;;;;;;;5005896;28;20044;-77
2022/10/20 15:23:37;;;;;;;9.35;5.75;;;;;;;;;;5006605;28;20042;-74
2022/10/20 15:26:13;;;;;;;10.20;5.70;;;;;;;;;;5006878;28;20411;-76
2022/10/20 15:28:48;;;;;;;12.27;5.80;;;;;;;;;;5006306;28;20038;-73
2022/10/20 15:31:28;;;;;;;;;;;;;;;;;;4989794;28;20050;-77
2022/10/20 15:33:59;;;;;;;12.50;5.50;;;;;;;;;;5006894;28;19925;-74
2022/10/20 15:36:32;;;;;;;11.50;6.57;;;;;;;;;;5006631;28;20061;-76
2022/10/20 15:39:04;;;;;;;11.57;7.05;;;;;;;;;;5006584;28;20064;-77
2022/10/20 15:41:35;;;;;;;14.40;8.40;;;;;;;;;;5008375;28;20057;-74
2022/10/20 15:44:16;;;;;;;12.73;8.00;;;;;;;;;;5010602;28;20505;-75
2022/10/20 15:46:48;;;;;;;15.77;8.30;;;;;;;;;;5010817;28;20053;-76
2022/10/20 15:49:19;;;;;;;17.20;8.80;;;;;;;;;;5010781;28;20072;-74
2022/10/20 15:51:49;;;;;;;15.85;8.32;;;;;;;;;;5009788;28;20065;-74
2022/10/20 15:54:21;;;;;;;11.80;7.53;;;;;;;;;;5010225;28;20049;-74
2022/10/20 15:56:51;;;;;;;275.00;19.27;;;;;;;;;;5010247;28;20053;-75
2022/10/20 15:59:22;;;;;;;83.05;10.57;;;;;;;;;;5010349;28;20050;-73
2022/10/20 16:01:51;;;;;;;32.08;9.05;;;;;;;;;;5010132;28;20050;-75